Coalgate, Oklahoma
Current Conditions -  °F | °C
As of 2:55 PM on Friday 31 Oct 2014 (Local Time) from KAQR Reporting Station
Clear Clear  
Wind Chill: 61°   Ceiling: Unl
Heat Index: 61°   Visibility: 10mi
Dew Point: 37°   Wind: 8mph
Humidity: 42%   Direction: 30°NNE
Pressure: 30.33"   Gusts: 17mph
Location:  34.54°N, 96.22°W
Report Text: KAQR 311955Z AUTO 03007G15KT 357V057 10SM CLR 16/03 A3033 RMK AO2
Loading
Personal Weather Stations






























Interactive Weather Map
Tropical Storm Tracking
New forecast layout! Learn more

10-Day Weather Forecast

Advertisements
Track Severe Weather on mobile